Airport ICAO


12:34 UTC

19°C

Clear skies


An affordable passengers' Moving Map for your aircraft. Made for the iPad and the iPhone
More information here

LFMD Mandelieu


Cannes FRANCE   VFR CAVOK


METAR LFMD 101230Z AUTO VRB05KT CAVOK 19/M02 Q1016 NOSIG 0h04min

TAF LFMD 100800Z 1009/1109 31005KT CAVOK 4h34min





NOTAMS

OPEN